Time;durP1;ratioP1;P1;durP2;ratioP2;P2;SDS_P1;SDS_P2;PMS_P1;PMS_P2;Temp;Humidity;BMP_temperature;BMP_pressure;BME280_temperature;BME280_humidity;BME280_pressure;Samples;Min_cycle;Max_cycle;Signal;HPM_P1;HPM_P2
2022/03/24 00:01:56;;;;;;;7.07;1.52;;;20.60;99.90;;;;;;5079118;28;20211;-75
2022/03/24 00:04:27;;;;;;;4.55;1.52;;;20.70;99.90;;;;;;5089429;28;20287;-76
2022/03/24 00:06:58;;;;;;;4.00;1.58;;;20.70;99.90;;;;;;5087005;28;20202;-76
2022/03/24 00:09:30;;;;;;;5.75;1.50;;;20.70;99.90;;;;;;5090380;28;20256;-76
2022/03/24 00:12:01;;;;;;;4.95;1.85;;;20.70;99.90;;;;;;5090056;28;20240;-75
2022/03/24 00:14:32;;;;;;;5.38;1.52;;;20.70;99.90;;;;;;5097385;28;20661;-75
2022/03/24 00:17:02;;;;;;;3.67;1.52;;;20.80;99.90;;;;;;5101932;28;20203;-75
2022/03/24 00:19:34;;;;;;;6.35;1.55;;;20.70;99.90;;;;;;5090146;28;20192;-76
2022/03/24 00:22:04;;;;;;;6.28;1.90;;;20.80;99.90;;;;;;5090036;28;20195;-76
2022/03/24 00:25:00;;;;;;;8.18;1.88;;;20.80;99.90;;;;;;5089876;28;20795;-76
2022/03/24 00:27:31;;;;;;;7.22;1.83;;;20.80;99.90;;;;;;5085429;28;20195;-76
2022/03/24 00:30:03;;;;;;;7.70;1.85;;;20.80;99.90;;;;;;5090007;28;20233;-76
2022/03/24 00:32:33;;;;;;;6.53;1.63;;;20.80;99.90;;;;;;5088582;28;20223;-75
2022/03/24 00:35:04;;;;;;;5.07;1.83;;;20.70;99.90;;;;;;5082553;28;20276;-75
2022/03/24 00:37:34;;;;;;;6.00;1.60;;;20.70;99.90;;;;;;5084015;28;20215;-75
2022/03/24 00:40:08;;;;;;;6.05;1.60;;;20.70;99.90;;;;;;5084114;28;20228;-75
2022/03/24 00:42:39;;;;;;;6.18;1.80;;;20.70;99.90;;;;;;5103251;28;20598;-76
2022/03/24 00:45:12;;;;;;;5.43;1.90;;;20.70;99.90;;;;;;5089597;28;20717;-76
2022/03/24 00:47:43;;;;;;;5.15;1.70;;;20.70;99.90;;;;;;5090010;28;20537;-75
2022/03/24 00:50:15;;;;;;;5.78;1.52;;;20.70;99.90;;;;;;5089676;28;20196;-76
2022/03/24 00:52:48;;;;;;;9.70;2.50;;;20.80;99.90;;;;;;5083756;28;20211;-75
2022/03/24 00:55:21;;;;;;;5.65;1.50;;;20.80;99.90;;;;;;5087629;28;20206;-76
2022/03/24 00:57:54;;;;;;;6.60;2.15;;;20.80;99.90;;;;;;5084763;28;20287;-75
2022/03/24 01:00:28;;;;;;;8.70;2.00;;;20.80;99.90;;;;;;5076140;28;20267;-75
2022/03/24 01:02:59;;;;;;;7.07;1.48;;;20.80;99.90;;;;;;5083742;28;20214;-75
2022/03/24 01:05:29;;;;;;;8.82;1.92;;;20.70;99.90;;;;;;5087692;28;20306;-75
2022/03/24 01:08:00;;;;;;;6.28;1.40;;;20.70;99.90;;;;;;5073953;28;20705;-75
2022/03/24 01:10:33;;;;;;;7.35;1.80;;;20.70;99.90;;;;;;5078329;28;20219;-75
2022/03/24 01:13:03;;;;;;;4.68;1.80;;;20.70;99.90;;;;;;5079675;28;20694;-75
2022/03/24 01:15:34;;;;;;;4.97;1.88;;;20.70;99.90;;;;;;5081504;28;20335;-76
2022/03/24 01:18:07;;;;;;;7.28;1.75;;;20.70;99.90;;;;;;5083276;28;20280;-75
2022/03/24 01:20:38;;;;;;;4.50;1.90;;;20.80;99.90;;;;;;5084399;28;20243;-76
2022/03/24 01:23:09;;;;;;;6.15;1.60;;;20.80;99.90;;;;;;5074006;28;20579;-76
2022/03/24 01:25:42;;;;;;;6.13;1.80;;;20.80;99.90;;;;;;5088548;28;20234;-75
2022/03/24 01:28:13;;;;;;;5.28;1.52;;;20.80;99.90;;;;;;5081799;28;20214;-76
2022/03/24 01:30:43;;;;;;;4.82;1.58;;;20.80;99.90;;;;;;5084705;28;20298;-76
2022/03/24 01:33:14;;;;;;;6.15;1.70;;;20.80;99.90;;;;;;5090972;28;20196;-75
2022/03/24 01:35:45;;;;;;;5.40;1.85;;;20.80;99.90;;;;;;5077184;28;20216;-75
2022/03/24 01:38:16;;;;;;;5.68;1.60;;;20.70;99.90;;;;;;5081599;28;20195;-75
2022/03/24 01:40:48;;;;;;;8.75;1.95;;;20.70;99.90;;;;;;5074635;28;20224;-75
2022/03/24 01:43:19;;;;;;;7.38;1.88;;;20.70;99.90;;;;;;5081853;28;20200;-75
2022/03/24 01:45:50;;;;;;;5.00;1.60;;;20.70;99.90;;;;;;5084303;28;20223;-75
2022/03/24 01:48:20;;;;;;;4.40;1.90;;;20.70;99.90;;;;;;5091909;28;20207;-75
2022/03/24 01:50:51;;;;;;;5.28;1.83;;;20.80;99.90;;;;;;5083174;28;20617;-75
2022/03/24 01:53:22;;;;;;;7.80;1.52;;;20.80;99.90;;;;;;5077390;28;20284;-75
2022/03/24 01:55:56;;;;;;;4.53;1.40;;;20.70;99.90;;;;;;5074861;28;20223;-75
2022/03/24 01:58:27;;;;;;;6.30;1.80;;;20.70;99.90;;;;;;5085566;28;20203;-75
2022/03/24 02:01:28;;;;;;;8.80;2.13;;;20.70;99.90;;;;;;5082833;28;20215;-75
2022/03/24 02:04:00;;;;;;;7.45;2.10;;;20.70;99.90;;;;;;5083656;28;20211;-75
2022/03/24 02:06:30;;;;;;;5.57;1.45;;;20.70;99.90;;;;;;5085992;28;20597;-76
2022/03/24 02:09:01;;;;;;;3.47;1.65;;;20.80;99.90;;;;;;5084496;28;20288;-75
2022/03/24 02:11:35;;;;;;;5.13;1.80;;;20.80;99.90;;;;;;5085923;28;20226;-75
2022/03/24 02:14:06;;;;;;;4.80;1.60;;;20.90;99.90;;;;;;5083234;28;20243;-75
2022/03/24 02:16:38;;;;;;;7.03;1.92;;;20.80;99.90;;;;;;5081586;28;20212;-75
2022/03/24 02:19:16;;;;;;;7.03;1.67;;;20.80;99.90;;;;;;5083342;28;20188;-76
2022/03/24 02:21:48;;;;;;;3.95;1.40;;;20.80;99.90;;;;;;5076390;28;20300;-76
2022/03/24 02:24:21;;;;;;;6.05;2.05;;;20.90;99.90;;;;;;5079663;28;20191;-77
2022/03/24 02:26:53;;;;;;;5.80;1.60;;;20.90;99.90;;;;;;5082822;28;20223;-77
2022/03/24 02:29:25;;;;;;;5.82;1.77;;;20.90;99.90;;;;;;5074740;28;20694;-76
2022/03/24 02:31:56;;;;;;;5.07;1.80;;;21.00;99.90;;;;;;5071500;28;20219;-76
2022/03/24 02:34:40;;;;;;;5.70;1.80;;;21.00;99.90;;;;;;5072519;28;20691;-77
2022/03/24 02:37:12;;;;;;;7.07;1.80;;;20.90;99.90;;;;;;5073442;28;20247;-76
2022/03/24 02:39:47;;;;;;;5.53;1.70;;;20.90;99.90;;;;;;5080740;28;20334;-76
2022/03/24 02:42:18;;;;;;;6.60;2.00;;;20.90;99.90;;;;;;5081743;28;20214;-76
2022/03/24 02:44:50;;;;;;;6.97;2.00;;;20.90;99.90;;;;;;5076313;28;20212;-76
2022/03/24 02:47:20;;;;;;;4.53;1.70;;;21.00;99.90;;;;;;5079113;28;20227;-76
2022/03/24 02:49:53;;;;;;;5.57;1.90;;;20.90;99.90;;;;;;5078790;28;20222;-76
2022/03/24 02:52:24;;;;;;;5.00;1.80;;;20.90;99.90;;;;;;5084672;28;20724;-77
2022/03/24 02:54:57;;;;;;;5.13;1.90;;;20.90;99.90;;;;;;5073483;28;20223;-77
2022/03/24 02:57:28;;;;;;;6.15;2.00;;;20.90;99.90;;;;;;5073860;28;20225;-76
2022/03/24 02:59:59;;;;;;;7.43;2.00;;;21.00;99.90;;;;;;5070908;28;20214;-76
2022/03/24 03:02:29;;;;;;;5.00;1.60;;;20.90;99.90;;;;;;5077114;28;20211;-76
2022/03/24 03:05:01;;;;;;;6.30;1.80;;;20.90;99.90;;;;;;5077132;28;20200;-77
2022/03/24 03:07:31;;;;;;;5.45;1.80;;;20.90;99.90;;;;;;5083197;28;20263;-76
2022/03/24 03:10:04;;;;;;;3.30;1.50;;;20.80;99.90;;;;;;5073527;28;20199;-76
2022/03/24 03:12:34;;;;;;;5.50;1.70;;;20.90;99.90;;;;;;5081339;28;20240;-75
2022/03/24 03:15:05;;;;;;;4.00;1.40;;;20.70;99.90;;;;;;5083670;28;20198;-75
2022/03/24 03:17:36;;;;;;;5.47;1.65;;;20.70;99.90;;;;;;5070445;28;20647;-76
2022/03/24 03:20:07;;;;;;;5.57;1.40;;;20.80;99.90;;;;;;5077938;28;20566;-75
2022/03/24 03:22:39;;;;;;;6.20;1.58;;;20.80;99.90;;;;;;5070731;28;20191;-76
2022/03/24 03:25:12;;;;;;;7.35;1.70;;;20.90;99.90;;;;;;5081850;28;20230;-76
2022/03/24 03:27:43;;;;;;;4.85;1.58;;;20.90;99.90;;;;;;5072021;28;20273;-76
2022/03/24 03:30:14;;;;;;;7.43;1.60;;;20.90;99.90;;;;;;5087848;28;20196;-76
2022/03/24 03:32:45;;;;;;;4.88;1.40;;;21.00;99.90;;;;;;5071671;28;20227;-76
2022/03/24 03:35:16;;;;;;;6.63;1.60;;;21.00;99.90;;;;;;5079325;28;20221;-77
2022/03/24 03:37:47;;;;;;;6.93;1.92;;;21.10;99.90;;;;;;5076249;28;20219;-75
2022/03/24 03:40:19;;;;;;;6.95;1.73;;;21.00;99.90;;;;;;5083780;28;20359;-75
2022/03/24 03:42:51;;;;;;;5.18;1.45;;;21.00;99.90;;;;;;5084594;28;20665;-75
2022/03/24 03:45:22;;;;;;;5.10;1.38;;;21.10;99.90;;;;;;5086318;28;20196;-75
2022/03/24 03:47:52;;;;;;;8.52;1.92;;;21.10;99.90;;;;;;5088233;28;20632;-76
2022/03/24 03:50:25;;;;;;;5.60;1.35;;;21.20;99.90;;;;;;5080313;28;20195;-75
2022/03/24 03:52:55;;;;;;;6.82;2.08;;;21.20;99.90;;;;;;5091254;28;20202;-75
2022/03/24 03:55:28;;;;;;;7.25;1.70;;;21.30;99.90;;;;;;5090170;28;20195;-76
2022/03/24 03:57:58;;;;;;;6.60;1.67;;;21.40;99.90;;;;;;5089189;28;20192;-75
2022/03/24 04:03:16;;;;;;;10.80;1.83;;;21.40;99.90;;;;;;5086280;28;20214;-75
2022/03/24 04:05:47;;;;;;;6.65;1.30;;;21.50;99.90;;;;;;5075904;28;20233;-75
2022/03/24 04:08:17;;;;;;;6.10;1.60;;;21.50;99.90;;;;;;5082369;28;20677;-75
2022/03/24 04:10:50;;;;;;;8.50;1.77;;;21.50;99.90;;;;;;5084600;28;20191;-76
2022/03/24 04:13:21;;;;;;;7.38;1.92;;;21.60;99.90;;;;;;5071435;28;20288;-76
2022/03/24 04:15:54;;;;;;;6.20;1.60;;;21.60;99.90;;;;;;5078642;28;20211;-76
2022/03/24 04:18:25;;;;;;;6.82;1.67;;;21.60;99.90;;;;;;5069961;28;20234;-75
2022/03/24 04:20:56;;;;;;;5.75;1.52;;;21.60;99.90;;;;;;5084903;28;20264;-76
2022/03/24 04:23:27;;;;;;;6.65;1.60;;;21.60;99.90;;;;;;5089556;28;20252;-75
2022/03/24 04:25:59;;;;;;;5.28;1.40;;;21.60;99.90;;;;;;5084487;28;20277;-75
2022/03/24 04:28:30;;;;;;;4.60;1.30;;;21.60;99.90;;;;;;5082575;28;20223;-75
2022/03/24 04:31:01;;;;;;;4.28;1.20;;;21.60;99.90;;;;;;5084972;28;20219;-75
2022/03/24 04:33:32;;;;;;;8.30;1.77;;;21.60;99.90;;;;;;5085096;28;20211;-75
2022/03/24 04:36:07;;;;;;;5.88;1.70;;;21.60;99.90;;;;;;5081736;28;20654;-76
2022/03/24 04:38:39;;;;;;;4.43;1.48;;;21.60;99.90;;;;;;5082982;28;20238;-75
2022/03/24 04:41:11;;;;;;;3.70;1.33;;;21.70;99.90;;;;;;5079654;28;20288;-75
2022/03/24 04:43:43;;;;;;;5.78;1.55;;;21.70;99.90;;;;;;5088861;28;20199;-76
2022/03/24 04:46:16;;;;;;;4.50;1.33;;;21.70;99.90;;;;;;5087675;28;20231;-75
2022/03/24 04:48:48;;;;;;;3.90;1.15;;;21.80;99.90;;;;;;5081287;28;20628;-75
2022/03/24 04:51:19;;;;;;;6.43;1.30;;;21.80;99.90;;;;;;5078177;28;20192;-76
2022/03/24 04:53:50;;;;;;;6.07;1.52;;;21.80;99.90;;;;;;5085471;28;20203;-76
2022/03/24 04:56:22;;;;;;;6.30;1.23;;;21.90;99.90;;;;;;5071636;28;20201;-75
2022/03/24 04:58:53;;;;;;;7.53;1.55;;;21.80;99.90;;;;;;5086839;28;20215;-76
2022/03/24 05:01:24;;;;;;;5.63;1.40;;;21.90;99.90;;;;;;5078029;28;20200;-76
2022/03/24 05:03:54;;;;;;;4.53;1.35;;;22.00;99.90;;;;;;5080861;28;20279;-76
2022/03/24 05:06:26;;;;;;;8.63;1.73;;;22.00;99.90;;;;;;5083663;28;20922;-76
2022/03/24 05:08:57;;;;;;;6.35;1.50;;;22.10;99.90;;;;;;5070149;28;20191;-75
2022/03/24 05:11:29;;;;;;;5.55;1.30;;;22.10;99.90;;;;;;5076065;28;20218;-76
2022/03/24 05:14:01;;;;;;;5.25;1.30;;;22.10;99.90;;;;;;5069942;28;20184;-76
2022/03/24 05:16:32;;;;;;;4.93;1.40;;;22.10;99.90;;;;;;5080347;28;20199;-76
2022/03/24 05:19:03;;;;;;;6.43;1.50;;;22.20;99.90;;;;;;5069584;28;20192;-76
2022/03/24 05:21:34;;;;;;;4.55;1.30;;;22.20;99.90;;;;;;5069636;28;20200;-76
2022/03/24 05:24:08;;;;;;;5.13;1.33;;;22.20;99.90;;;;;;5085943;28;20199;-76
2022/03/24 05:26:41;;;;;;;3.72;1.25;;;22.20;99.90;;;;;;5088879;28;20250;-76
2022/03/24 05:29:12;;;;;;;5.13;1.30;;;22.00;99.90;;;;;;5089062;28;20256;-76
2022/03/24 05:31:43;;;;;;;4.25;1.00;;;21.80;99.90;;;;;;5078277;28;20207;-76
2022/03/24 05:34:13;;;;;;;7.40;1.52;;;21.80;99.90;;;;;;5069682;28;20588;-76
2022/03/24 05:36:44;;;;;;;6.15;1.50;;;21.90;99.90;;;;;;5085124;28;20203;-76
2022/03/24 05:39:15;;;;;;;5.45;1.60;;;21.80;99.90;;;;;;5071813;28;20191;-76
2022/03/24 05:41:47;;;;;;;5.82;1.13;;;21.90;99.90;;;;;;5088971;28;20728;-77
2022/03/24 05:44:18;;;;;;;5.78;1.50;;;21.90;99.90;;;;;;5076234;28;20219;-77
2022/03/24 05:46:49;;;;;;;4.43;1.20;;;22.00;99.90;;;;;;5076360;28;20691;-77
2022/03/24 05:49:21;;;;;;;4.25;1.10;;;22.00;99.90;;;;;;5085800;28;20249;-76
2022/03/24 05:51:52;;;;;;;5.80;1.30;;;22.10;99.90;;;;;;5081935;28;20221;-77
2022/03/24 05:54:23;;;;;;;5.30;1.10;;;22.10;99.90;;;;;;5087286;28;20207;-78
2022/03/24 05:56:56;;;;;;;6.32;1.50;;;22.10;99.90;;;;;;5079623;28;20629;-77
2022/03/24 05:59:28;;;;;;;7.32;1.60;;;22.10;99.90;;;;;;5084743;28;20566;-77
2022/03/24 06:02:00;;;;;;;4.35;1.27;;;22.10;99.90;;;;;;5079580;28;20274;-76
2022/03/24 06:04:31;;;;;;;7.20;1.73;;;22.10;99.90;;;;;;5086174;28;20547;-76
2022/03/24 06:07:02;;;;;;;5.32;1.38;;;22.10;99.90;;;;;;5082050;28;20234;-76
2022/03/24 06:09:34;;;;;;;6.28;1.75;;;22.10;99.90;;;;;;5082752;28;20219;-76
2022/03/24 06:12:10;;;;;;;6.22;1.60;;;22.10;99.90;;;;;;5083906;28;20214;-76
2022/03/24 06:14:42;;;;;;;4.78;1.90;;;22.10;99.90;;;;;;5087533;28;20241;-76
2022/03/24 06:17:12;;;;;;;7.07;1.70;;;22.10;99.90;;;;;;5087728;28;20215;-76
2022/03/24 06:19:44;;;;;;;6.90;1.90;;;22.10;99.90;;;;;;5088844;28;20221;-76
2022/03/24 06:22:15;;;;;;;3.90;1.40;;;22.10;99.90;;;;;;5080681;28;20211;-76
2022/03/24 06:24:46;;;;;;;5.10;1.55;;;22.10;99.90;;;;;;5077562;28;20223;-76
2022/03/24 06:27:19;;;;;;;4.32;1.33;;;22.10;99.90;;;;;;5080616;28;20246;-76
2022/03/24 06:29:50;;;;;;;7.68;1.65;;;22.10;99.90;;;;;;5088099;28;20219;-76
2022/03/24 06:32:22;;;;;;;4.13;1.30;;;22.10;99.90;;;;;;5090770;28;20196;-76
2022/03/24 06:34:53;;;;;;;6.90;1.38;;;22.10;99.90;;;;;;5086734;28;20219;-76
2022/03/24 06:37:23;;;;;;;5.57;1.48;;;22.10;99.90;;;;;;5077112;28;20204;-76
2022/03/24 06:39:54;;;;;;;3.90;1.25;;;22.10;99.90;;;;;;5077976;28;20227;-76
2022/03/24 06:42:27;;;;;;;6.40;1.50;;;22.10;99.90;;;;;;5083232;28;20260;-75
2022/03/24 06:44:57;;;;;;;3.72;1.08;;;22.10;99.90;;;;;;5088032;28;20196;-76
2022/03/24 06:47:28;;;;;;;4.53;1.38;;;22.10;99.90;;;;;;5075080;28;20288;-75
2022/03/24 06:49:59;;;;;;;6.18;1.33;;;22.10;99.90;;;;;;5074891;28;20223;-76
2022/03/24 06:52:29;;;;;;;4.85;1.27;;;22.10;99.90;;;;;;5083276;28;20223;-76
2022/03/24 06:55:00;;;;;;;5.60;1.25;;;22.10;99.90;;;;;;5080286;28;20224;-75
2022/03/24 06:57:33;;;;;;;4.90;1.20;;;22.10;99.90;;;;;;5081083;28;20191;-76
2022/03/24 07:00:03;;;;;;;5.38;1.33;;;22.00;99.90;;;;;;5082115;28;20195;-76
2022/03/24 07:02:34;;;;;;;4.18;1.27;;;22.00;99.90;;;;;;5071802;28;20655;-76
2022/03/24 07:05:05;;;;;;;5.55;1.40;;;22.00;99.90;;;;;;5079841;28;20265;-76
2022/03/24 07:07:35;;;;;;;7.03;1.48;;;22.00;99.90;;;;;;5078815;28;20219;-76
2022/03/24 07:10:06;;;;;;;4.03;1.10;;;21.90;99.90;;;;;;5086437;28;20195;-76
2022/03/24 07:12:39;;;;;;;5.47;1.40;;;21.90;99.90;;;;;;5089841;28;20195;-75
2022/03/24 07:15:11;;;;;;;5.93;1.45;;;21.90;99.90;;;;;;5076018;28;20702;-75
2022/03/24 07:17:42;;;;;;;5.13;1.30;;;21.90;99.90;;;;;;5071192;28;20241;-75
2022/03/24 07:20:13;;;;;;;5.85;1.10;;;21.90;99.90;;;;;;5071315;28;20234;-75
2022/03/24 07:22:44;;;;;;;5.75;1.40;;;21.90;99.90;;;;;;5084499;28;20245;-76
2022/03/24 07:25:15;;;;;;;5.93;1.40;;;21.90;99.90;;;;;;5075844;28;20625;-75
2022/03/24 07:27:49;;;;;;;4.10;1.30;;;22.00;99.90;;;;;;5078141;28;20224;-76
2022/03/24 07:30:19;;;;;;;4.45;1.30;;;22.00;99.90;;;;;;5080205;28;20210;-74
2022/03/24 07:32:50;;;;;;;5.50;1.25;;;22.00;99.90;;;;;;5077182;28;20537;-74
2022/03/24 07:35:24;;;;;;;3.50;0.90;;;21.90;99.90;;;;;;5082387;28;20215;-74
2022/03/24 07:37:54;;;;;;;6.25;1.33;;;21.90;99.90;;;;;;5083649;28;20261;-75
2022/03/24 07:40:26;;;;;;;3.28;0.85;;;21.80;99.90;;;;;;5082192;28;20243;-75
2022/03/24 07:42:59;;;;;;;2.42;1.00;;;21.80;99.90;;;;;;5089330;28;20191;-75
2022/03/24 07:45:30;;;;;;;5.05;1.52;;;21.70;99.90;;;;;;5087653;28;20215;-74
2022/03/24 07:48:12;;;;;;;4.55;1.00;;;21.60;99.90;;;;;;5080461;28;20277;-75
2022/03/24 07:50:44;;;;;;;3.70;1.00;;;21.50;99.90;;;;;;5088130;28;20245;-75
2022/03/24 07:53:40;;;;;;;3.17;1.08;;;21.40;99.90;;;;;;5084293;28;20191;-75
2022/03/24 07:56:11;;;;;;;2.13;0.95;;;21.40;99.90;;;;;;5087707;28;20191;-75
2022/03/24 07:58:44;;;;;;;4.53;1.20;;;21.30;99.90;;;;;;5083778;28;20231;-76
2022/03/24 08:01:15;;;;;;;5.43;1.60;;;21.30;99.90;;;;;;5071935;28;20294;-75
2022/03/24 08:03:45;;;;;;;4.57;1.80;;;21.30;99.90;;;;;;5072897;28;20222;-76
2022/03/24 08:06:19;;;;;;;4.95;1.63;;;21.20;99.90;;;;;;5070029;28;20325;-76
2022/03/24 08:08:50;;;;;;;6.57;2.03;;;21.20;99.90;;;;;;5070372;28;20223;-76
2022/03/24 08:11:22;;;;;;;5.80;1.65;;;21.20;99.90;;;;;;5071813;28;20218;-76
2022/03/24 08:13:55;;;;;;;4.05;1.45;;;21.10;99.90;;;;;;5078931;28;20250;-74
2022/03/24 08:16:26;;;;;;;7.53;1.90;;;21.10;99.90;;;;;;5071971;28;20220;-75
2022/03/24 08:18:56;;;;;;;6.13;1.67;;;21.00;99.90;;;;;;5069187;28;20222;-75
2022/03/24 08:21:27;;;;;;;4.05;1.50;;;21.00;99.90;;;;;;5076011;28;20215;-76
2022/03/24 08:23:58;;;;;;;3.53;1.50;;;21.00;99.90;;;;;;5075157;28;20272;-75
2022/03/24 08:26:28;;;;;;;5.93;1.60;;;20.90;99.90;;;;;;5078120;28;20230;-76
2022/03/24 08:29:01;;;;;;;3.03;1.40;;;20.90;99.90;;;;;;5076953;28;20296;-75
2022/03/24 08:31:33;;;;;;;6.97;1.50;;;20.80;99.90;;;;;;5079290;28;20223;-77
2022/03/24 08:34:03;;;;;;;3.80;1.27;;;20.70;99.90;;;;;;5080012;28;20251;-77
2022/03/24 08:36:34;;;;;;;3.13;1.25;;;20.60;99.90;;;;;;5075293;28;20262;-75
2022/03/24 08:39:04;;;;;;;3.15;1.10;;;20.60;99.90;;;;;;5069824;28;20288;-75
2022/03/24 08:48:14;;;;;;;3.00;1.13;;;20.40;99.90;;;;;;5078756;28;20268;-76
2022/03/24 08:50:45;;;;;;;4.20;1.60;;;20.40;99.90;;;;;;5074336;28;20198;-75
2022/03/24 08:53:16;;;;;;;3.95;1.40;;;20.40;99.90;;;;;;5082640;28;20199;-76
2022/03/24 08:55:46;;;;;;;3.67;1.50;;;20.30;99.90;;;;;;5077521;28;20295;-75
2022/03/24 08:58:18;;;;;;;4.53;1.60;;;20.30;99.90;;;;;;5078943;28;20284;-75
2022/03/24 09:00:49;;;;;;;5.75;1.83;;;20.20;99.90;;;;;;5085440;28;20302;-76
2022/03/24 09:03:22;;;;;;;4.07;1.50;;;20.20;99.90;;;;;;5084146;28;20273;-76
2022/03/24 09:05:53;;;;;;;2.53;1.23;;;20.20;99.90;;;;;;5072509;28;20218;-75
2022/03/24 09:08:23;;;;;;;4.13;1.55;;;20.20;99.90;;;;;;5075134;28;20235;-76
2022/03/24 09:10:54;;;;;;;3.58;1.40;;;20.10;99.90;;;;;;5076571;28;20218;-76
2022/03/24 09:13:24;;;;;;;3.63;1.48;;;20.10;99.90;;;;;;5076324;28;20273;-76
2022/03/24 09:15:55;;;;;;;2.90;1.40;;;20.10;99.90;;;;;;5077665;28;20198;-75
2022/03/24 09:18:27;;;;;;;4.18;1.48;;;20.10;99.90;;;;;;5082596;28;20664;-75
2022/03/24 09:20:58;;;;;;;3.85;1.30;;;20.10;99.90;;;;;;5083254;28;20195;-76
2022/03/24 09:23:29;;;;;;;3.33;1.60;;;20.10;99.90;;;;;;5074322;28;20247;-76
2022/03/24 09:26:01;;;;;;;3.92;1.40;;;20.10;99.90;;;;;;5077187;28;20268;-76
2022/03/24 09:28:32;;;;;;;4.13;1.50;;;20.10;99.90;;;;;;5070095;28;20302;-76
2022/03/24 09:31:02;;;;;;;3.47;1.30;;;20.00;99.90;;;;;;5079061;28;20256;-75
2022/03/24 09:33:36;;;;;;;3.45;1.52;;;20.00;99.90;;;;;;5073848;28;20235;-75
2022/03/24 09:36:06;;;;;;;2.42;1.25;;;20.00;99.90;;;;;;5071168;28;20215;-75
2022/03/24 09:38:37;;;;;;;2.45;1.20;;;20.00;99.90;;;;;;5075612;28;20274;-75
2022/03/24 09:41:09;;;;;;;6.28;1.50;;;20.00;99.90;;;;;;5080299;28;20215;-74
2022/03/24 09:43:41;;;;;;;4.15;1.30;;;20.00;99.90;;;;;;5075146;28;20215;-74
2022/03/24 09:46:11;;;;;;;2.30;1.20;;;20.00;99.90;;;;;;5073897;28;20215;-74
2022/03/24 09:48:45;;;;;;;2.72;1.27;;;20.10;99.90;;;;;;5075705;28;20335;-75
2022/03/24 09:51:17;;;;;;;2.15;1.10;;;20.10;99.90;;;;;;5088714;28;20272;-75
2022/03/24 09:53:50;;;;;;;1.90;1.10;;;20.10;99.90;;;;;;5079590;28;20685;-77
2022/03/24 09:56:21;;;;;;;3.03;1.30;;;20.20;99.90;;;;;;5079242;28;20299;-75
2022/03/24 09:58:52;;;;;;;4.55;1.20;;;20.20;99.90;;;;;;5077255;28;20224;-74
2022/03/24 10:01:23;;;;;;;3.25;1.45;;;20.20;99.90;;;;;;5081273;28;20272;-75
2022/03/24 10:04:14;;;;;;;4.35;1.40;;;20.10;99.90;;;;;;5073989;28;20223;-76
2022/03/24 10:07:01;;;;;;;4.00;1.40;;;20.20;99.90;;;;;;5078066;28;20254;-76
2022/03/24 10:09:42;;;;;;;2.03;0.90;;;20.20;99.90;;;;;;5075530;28;20317;-78
2022/03/24 10:12:21;;;;;;;3.67;1.27;;;20.20;99.90;;;;;;5080732;28;20218;-76
2022/03/24 10:15:01;;;;;;;3.03;1.05;;;20.10;99.90;;;;;;5082116;28;20246;-75
2022/03/24 10:17:33;;;;;;;1.88;1.20;;;20.10;99.90;;;;;;5079206;28;20212;-75
2022/03/24 10:20:08;;;;;;;5.43;1.50;;;20.20;99.90;;;;;;5076550;28;20219;-75
2022/03/24 10:22:39;;;;;;;4.43;1.52;;;20.10;99.90;;;;;;5083306;28;20224;-76
2022/03/24 10:25:22;;;;;;;3.40;1.20;;;20.20;99.90;;;;;;5080809;28;20281;-76
2022/03/24 10:28:03;;;;;;;6.90;1.42;;;20.10;99.90;;;;;;5080957;28;20258;-75
2022/03/24 10:30:49;;;;;;;4.55;1.33;;;20.10;99.90;;;;;;5081400;28;20215;-74
2022/03/24 10:33:33;;;;;;;3.05;1.10;;;20.10;99.90;;;;;;5074948;28;20436;-75
2022/03/24 10:36:17;;;;;;;2.65;1.10;;;20.10;99.90;;;;;;5081420;28;20215;-76
2022/03/24 10:38:49;;;;;;;3.53;1.20;;;20.20;99.90;;;;;;5071137;28;20218;-75
2022/03/24 10:41:22;;;;;;;4.03;1.20;;;20.10;99.90;;;;;;5081175;28;20215;-75
2022/03/24 10:43:54;;;;;;;4.72;1.10;;;20.10;99.90;;;;;;5079887;28;20272;-74
2022/03/24 10:46:25;;;;;;;5.05;1.30;;;20.10;99.90;;;;;;5081839;28;20720;-74
2022/03/24 10:48:57;;;;;;;5.82;1.35;;;20.10;99.90;;;;;;5083847;28;20231;-75
2022/03/24 10:51:31;;;;;;;5.05;1.13;;;20.20;99.90;;;;;;5087616;28;20780;-75
2022/03/24 10:54:20;;;;;;;3.33;1.30;;;20.10;99.90;;;;;;5080760;28;20215;-73
2022/03/24 10:56:57;;;;;;;4.93;1.40;;;20.10;99.90;;;;;;5083705;28;20212;-74
2022/03/24 10:59:31;;;;;;;3.55;1.20;;;20.10;99.90;;;;;;5084720;28;20214;-77
2022/03/24 11:02:02;;;;;;;4.18;1.20;;;20.10;99.90;;;;;;5079415;28;20211;-73
2022/03/24 11:04:33;;;;;;;3.70;1.33;;;20.10;99.90;;;;;;5075965;28;20212;-74
2022/03/24 11:07:06;;;;;;;3.80;1.60;;;20.10;99.90;;;;;;5084465;28;20192;-75
2022/03/24 11:09:37;;;;;;;3.25;1.50;;;20.10;99.90;;;;;;5077497;28;20284;-75
2022/03/24 11:12:27;;;;;;;2.83;1.17;;;20.10;99.90;;;;;;5081946;28;20191;-76
2022/03/24 11:15:01;;;;;;;2.90;1.05;;;20.10;99.90;;;;;;5078146;28;20295;-75
2022/03/24 11:17:36;;;;;;;3.17;1.10;;;20.10;99.90;;;;;;5075528;28;20195;-74
2022/03/24 11:20:16;;;;;;;1.95;0.70;;;20.10;99.90;;;;;;5077058;28;20670;-75
2022/03/24 11:22:52;;;;;;;3.70;1.05;;;20.10;99.90;;;;;;5070706;28;20241;-74
2022/03/24 11:25:24;;;;;;;2.15;0.90;;;20.10;99.90;;;;;;5081538;28;20199;-74
2022/03/24 11:27:55;;;;;;;2.97;1.00;;;20.10;99.90;;;;;;5090129;28;20240;-75
2022/03/24 11:30:27;;;;;;;3.33;1.02;;;20.00;99.90;;;;;;5086320;28;20307;-75
2022/03/24 11:32:58;;;;;;;3.13;1.10;;;20.00;99.90;;;;;;5079471;28;20602;-75
2022/03/24 11:35:28;;;;;;;3.60;1.20;;;20.00;99.90;;;;;;5080474;28;20222;-75
2022/03/24 11:38:01;;;;;;;3.30;0.80;;;20.00;99.90;;;;;;5079997;28;20215;-74
2022/03/24 11:40:33;;;;;;;2.15;1.20;;;20.00;99.90;;;;;;5080779;28;20208;-74
2022/03/24 11:43:09;;;;;;;1.40;0.80;;;20.00;99.90;;;;;;5079407;28;20223;-74
2022/03/24 11:45:53;;;;;;;1.45;0.82;;;20.00;99.90;;;;;;5078844;28;20223;-74
2022/03/24 11:48:35;;;;;;;1.20;0.63;;;20.00;99.90;;;;;;5084971;28;20629;-73
2022/03/24 11:51:20;;;;;;;1.85;0.85;;;20.00;99.90;;;;;;5078019;28;20222;-75
2022/03/24 11:54:03;;;;;;;2.08;0.70;;;20.00;99.90;;;;;;5075052;28;20274;-75
2022/03/24 11:56:35;;;;;;;1.45;0.65;;;20.10;99.90;;;;;;5079075;28;20264;-76
2022/03/24 11:59:23;;;;;;;0.95;0.50;;;20.10;99.90;;;;;;5084470;28;20705;-76
2022/03/24 12:02:18;;;;;;;1.55;0.60;;;20.00;99.90;;;;;;5070128;28;20271;-76
2022/03/24 12:04:53;;;;;;;0.98;0.60;;;20.10;99.90;;;;;;5082517;28;20278;-76
2022/03/24 12:07:24;;;;;;;1.80;0.70;;;20.10;99.90;;;;;;5077624;28;20199;-76
2022/03/24 12:10:01;;;;;;;1.92;0.65;;;20.10;99.90;;;;;;5070592;28;20270;-76
2022/03/24 12:12:32;;;;;;;0.98;0.50;;;20.10;99.90;;;;;;5089912;28;20606;-75
2022/03/24 12:15:12;;;;;;;1.77;0.60;;;20.10;99.90;;;;;;5081736;28;20245;-75
2022/03/24 12:18:01;;;;;;;1.45;0.52;;;20.10;99.90;;;;;;5074490;28;20659;-76
2022/03/24 12:20:42;;;;;;;1.25;0.60;;;20.10;99.90;;;;;;5076226;28;20283;-74
2022/03/24 12:23:13;;;;;;;1.50;0.70;;;20.10;99.90;;;;;;5080021;28;20191;-74
2022/03/24 12:25:47;;;;;;;1.02;0.50;;;20.10;99.90;;;;;;5073601;28;20203;-76
2022/03/24 12:28:32;;;;;;;1.92;0.90;;;20.20;99.90;;;;;;5079571;28;20199;-76
2022/03/24 12:31:09;;;;;;;2.78;0.70;;;20.20;99.90;;;;;;5074406;28;20564;-75
2022/03/24 12:33:50;;;;;;;1.00;0.52;;;20.10;99.90;;;;;;5083099;28;20202;-74
2022/03/24 12:36:42;;;;;;;1.85;0.60;;;20.20;99.90;;;;;;5085948;28;20196;-78
2022/03/24 12:39:13;;;;;;;1.35;0.70;;;20.10;99.90;;;;;;5080087;28;20219;-75
2022/03/24 12:42:06;;;;;;;1.15;0.70;;;20.10;99.90;;;;;;5078887;28;20200;-75
2022/03/24 12:44:56;;;;;;;1.25;0.68;;;20.20;99.90;;;;;;5078210;28;20264;-74
2022/03/24 12:47:36;;;;;;;4.18;0.80;;;20.10;99.90;;;;;;5085294;28;20228;-75
2022/03/24 12:50:28;;;;;;;1.02;0.80;;;20.10;99.90;;;;;;5084057;28;20300;-75
2022/03/24 12:53:00;;;;;;;1.50;1.00;;;20.20;99.90;;;;;;5079167;28;20200;-76
2022/03/24 12:55:32;;;;;;;2.08;0.82;;;20.20;99.90;;;;;;5070913;28;20238;-76
2022/03/24 12:58:06;;;;;;;3.17;1.00;;;20.20;99.90;;;;;;5088907;28;20191;-75
2022/03/24 13:00:40;;;;;;;1.73;0.80;;;20.20;99.90;;;;;;5089469;28;20199;-75
2022/03/24 13:03:11;;;;;;;1.10;0.70;;;20.20;99.90;;;;;;5082860;28;20191;-76
2022/03/24 13:05:46;;;;;;;2.20;0.98;;;20.20;99.90;;;;;;5082441;28;20643;-75
2022/03/24 13:08:17;;;;;;;1.45;0.90;;;20.20;99.90;;;;;;5082820;28;20263;-76
2022/03/24 13:10:54;;;;;;;2.15;1.00;;;20.20;99.90;;;;;;5080496;28;20570;-76
2022/03/24 13:13:26;;;;;;;1.70;0.70;;;20.20;99.90;;;;;;5078692;28;20662;-77
2022/03/24 13:15:57;;;;;;;2.97;0.98;;;20.20;99.90;;;;;;5074758;28;20198;-77
2022/03/24 13:18:29;;;;;;;3.60;1.13;;;20.20;99.90;;;;;;5074929;28;20195;-79
2022/03/24 13:21:01;;;;;;;1.88;1.00;;;20.10;99.90;;;;;;5083525;28;20236;-78
2022/03/24 13:23:31;;;;;;;1.38;0.90;;;20.20;99.90;;;;;;5082006;28;20230;-77
2022/03/24 13:26:08;;;;;;;1.50;1.00;;;20.10;99.90;;;;;;5083524;28;20241;-78
2022/03/24 13:28:41;;;;;;;1.40;0.90;;;20.10;99.90;;;;;;5073566;28;20200;-76